Tenjinmaru No11 — JD3353 — position and weather

sailwx.info

Track history (hours):
 
Tides and Currents Weather Stations Pressure Air Temp Water Temp Dewpoint Dewpoint Depression Visibility Wind Speed Wind Dir Waves Ship Positions

Tenjinmaru No11

Last reported at 2017-Jan-23 02:33 UTC. Time now 2017-Jan-23 21:09 UTC.
Position N 34°36' E 135°23'.

Length 75 m; draft 4.8 m.

Type: Cargo ship. MMSI: 431003485.

Date/timePositionNaut miles runAvg speedWind from/ knotsBaromVisibWave heightAir tempDewpointWater temp
2017-Jan-23 02:33N 34°36' E 135°23'6 5.8
2017-Jan-23 01:33N 34°31' E 135°24'0 0.0
2017-Jan-22 23:04N 34°31' E 135°24'0 0.0
2017-Jan-22 22:28N 34°31' E 135°24'0 0.0
2017-Jan-22 21:21N 34°31' E 135°24'0 0.0
2017-Jan-22 20:33N 34°31' E 135°24'0 0.0
2017-Jan-22 19:33N 34°31' E 135°24'0 0.0
2017-Jan-22 17:27N 34°31' E 135°24'0 0.0
2017-Jan-21 23:27N 34°31' E 135°24'0 0.0
2017-Jan-19 23:03N 34°31' E 135°24'2 3.8
2017-Jan-19 22:32N 34°32' E 135°23'8 7.9
2017-Jan-19 21:33N 34°29' E 135°15'10 9.5
2017-Jan-19 20:33N 34°23' E 135°06'10 9.6
2017-Jan-19 19:32N 34°15' E 134°59'  
Track history (hours):
 
Tides and Currents Weather Stations Pressure Air Temp Water Temp Dewpoint Dewpoint Depression Visibility Wind Speed Wind Dir Waves Ship Positions

Tenjinmaru No11

Last reported at 2017-Jan-23 02:33 UTC. Time now 2017-Jan-23 21:09 UTC.
Position N 34°36' E 135°23'.

Length 75 m; draft 4.8 m.

Type: Cargo ship. MMSI: 431003485.

Date/timePositionNaut miles runAvg speedWind from/ knotsBaromVisibWave heightAir tempDewpointWater temp
2017-Jan-23 02:33N 34°36' E 135°23'6 5.8
2017-Jan-23 01:33N 34°31' E 135°24'0 0.0
2017-Jan-22 23:04N 34°31' E 135°24'0 0.0
2017-Jan-22 22:28N 34°31' E 135°24'0 0.0
2017-Jan-22 21:21N 34°31' E 135°24'0 0.0
2017-Jan-22 20:33N 34°31' E 135°24'0 0.0
2017-Jan-22 19:33N 34°31' E 135°24'0 0.0
2017-Jan-22 17:27N 34°31' E 135°24'0 0.0
2017-Jan-21 23:27N 34°31' E 135°24'0 0.0
2017-Jan-19 23:03N 34°31' E 135°24'2 3.8
2017-Jan-19 22:32N 34°32' E 135°23'8 7.9
2017-Jan-19 21:33N 34°29' E 135°15'10 9.5
2017-Jan-19 20:33N 34°23' E 135°06'10 9.6
2017-Jan-19 19:32N 34°15' E 134°59'  

Dump ship's entire track history